Terminal Aerodrome Forecast
Issued by NWS

Home | Current Version | Previous Version | Text Only | Print | Product List | Glossary On
Versions: 1 2 3 4 5 6 7 8 9 10 11 12 13 14 15 16 17 18 19 20 21 22
000
FTUS43 KDLH 300400 AAA
TAFHYR
TAF AMD
KHYR 300419Z 3004/3024 31004KT 5SM BR SCT060
      TEMPO 3004/3008 1SM BR
     FM300800 VRB02KT 2SM BR SCT050
      TEMPO 3008/3012 1/2SM FG SCT002
     FM301300 30008KT P6SM SCT050
     FM301900 30009KT P6SM VCTS SCT040CB BKN070=

USA.gov is the U.S. government's official web portal to all federal, state and local government web resources and services.